sensor_id;sensor_type;location;lat;lon;timestamp;temperature;humidity
24250;DHT22;12379;49.820;8.648;2023-02-18T00:00:08;11.80;99.90
24250;DHT22;12379;49.820;8.648;2023-02-18T00:02:35;11.80;99.90
24250;DHT22;12379;49.820;8.648;2023-02-18T00:05:02;11.70;99.90
24250;DHT22;12379;49.820;8.648;2023-02-18T00:07:27;11.70;99.90
24250;DHT22;12379;49.820;8.648;2023-02-18T00:09:53;11.70;99.90
24250;DHT22;12379;49.820;8.648;2023-02-18T00:12:18;11.70;99.90
24250;DHT22;12379;49.820;8.648;2023-02-18T00:14:44;11.60;99.90
24250;DHT22;12379;49.820;8.648;2023-02-18T00:17:09;11.60;99.90
24250;DHT22;12379;49.820;8.648;2023-02-18T00:19:35;11.60;99.90
24250;DHT22;12379;49.820;8.648;2023-02-18T00:22:00;11.60;99.90
24250;DHT22;12379;49.820;8.648;2023-02-18T00:24:26;11.50;99.90
24250;DHT22;12379;49.820;8.648;2023-02-18T00:26:52;11.50;99.90
24250;DHT22;12379;49.820;8.648;2023-02-18T00:29:18;11.50;99.90
24250;DHT22;12379;49.820;8.648;2023-02-18T00:31:44;11.40;99.90
24250;DHT22;12379;49.820;8.648;2023-02-18T00:34:11;11.40;99.90
24250;DHT22;12379;49.820;8.648;2023-02-18T00:36:37;11.50;99.90
24250;DHT22;12379;49.820;8.648;2023-02-18T00:39:06;11.50;99.90
24250;DHT22;12379;49.820;8.648;2023-02-18T00:41:34;11.40;99.90
24250;DHT22;12379;49.820;8.648;2023-02-18T00:43:59;11.40;99.90
24250;DHT22;12379;49.820;8.648;2023-02-18T00:46:26;11.50;99.90
24250;DHT22;12379;49.820;8.648;2023-02-18T00:48:52;11.40;99.90
24250;DHT22;12379;49.820;8.648;2023-02-18T00:51:18;11.50;99.90
24250;DHT22;12379;49.820;8.648;2023-02-18T00:53:43;11.50;99.90
24250;DHT22;12379;49.820;8.648;2023-02-18T00:56:09;11.50;99.90
24250;DHT22;12379;49.820;8.648;2023-02-18T00:58:35;11.40;99.90
24250;DHT22;12379;49.820;8.648;2023-02-18T01:01:01;11.50;99.90
24250;DHT22;12379;49.820;8.648;2023-02-18T01:03:27;11.40;99.90
24250;DHT22;12379;49.820;8.648;2023-02-18T01:05:53;11.40;99.90
24250;DHT22;12379;49.820;8.648;2023-02-18T01:08:19;11.40;99.90
24250;DHT22;12379;49.820;8.648;2023-02-18T01:10:47;11.40;99.90
24250;DHT22;12379;49.820;8.648;2023-02-18T01:13:14;11.40;99.90
24250;DHT22;12379;49.820;8.648;2023-02-18T01:15:40;11.40;99.90
24250;DHT22;12379;49.820;8.648;2023-02-18T01:18:07;11.40;99.90
24250;DHT22;12379;49.820;8.648;2023-02-18T01:20:34;11.40;99.90
24250;DHT22;12379;49.820;8.648;2023-02-18T01:23:00;11.40;99.90
24250;DHT22;12379;49.820;8.648;2023-02-18T01:25:25;11.40;99.90
24250;DHT22;12379;49.820;8.648;2023-02-18T01:27:51;11.30;99.90
24250;DHT22;12379;49.820;8.648;2023-02-18T01:30:22;11.40;99.90
24250;DHT22;12379;49.820;8.648;2023-02-18T01:33:03;11.40;99.90
24250;DHT22;12379;49.820;8.648;2023-02-18T01:35:37;11.30;99.90
24250;DHT22;12379;49.820;8.648;2023-02-18T01:38:08;11.30;99.90
24250;DHT22;12379;49.820;8.648;2023-02-18T01:40:53;11.30;99.90
24250;DHT22;12379;49.820;8.648;2023-02-18T01:43:22;11.30;99.90
24250;DHT22;12379;49.820;8.648;2023-02-18T01:45:58;11.40;99.90
24250;DHT22;12379;49.820;8.648;2023-02-18T01:48:45;11.40;99.90
24250;DHT22;12379;49.820;8.648;2023-02-18T01:51:31;11.40;99.90
24250;DHT22;12379;49.820;8.648;2023-02-18T01:54:06;11.40;99.90
24250;DHT22;12379;49.820;8.648;2023-02-18T01:56:50;11.40;99.90
24250;DHT22;12379;49.820;8.648;2023-02-18T01:59:23;11.40;99.90
24250;DHT22;12379;49.820;8.648;2023-02-18T02:01:49;11.30;99.90
24250;DHT22;12379;49.820;8.648;2023-02-18T02:04:15;11.30;99.90
24250;DHT22;12379;49.820;8.648;2023-02-18T02:06:41;11.20;99.90
24250;DHT22;12379;49.820;8.648;2023-02-18T02:09:09;11.40;99.90
24250;DHT22;12379;49.820;8.648;2023-02-18T02:17:43;11.40;99.90
24250;DHT22;12379;49.820;8.648;2023-02-18T02:39:03;11.30;99.90
24250;DHT22;12379;49.820;8.648;2023-02-18T02:53:01;11.10;99.90
24250;DHT22;12379;49.820;8.648;2023-02-18T02:55:30;11.10;99.90
24250;DHT22;12379;49.820;8.648;2023-02-18T02:57:56;11.10;99.90
24250;DHT22;12379;49.820;8.648;2023-02-18T03:00:46;11.10;99.90
24250;DHT22;12379;49.820;8.648;2023-02-18T03:03:29;11.20;99.90
24250;DHT22;12379;49.820;8.648;2023-02-18T03:06:26;11.10;99.90
24250;DHT22;12379;49.820;8.648;2023-02-18T03:09:22;11.10;99.90
24250;DHT22;12379;49.820;8.648;2023-02-18T03:12:03;11.10;99.90
24250;DHT22;12379;49.820;8.648;2023-02-18T03:17:56;11.20;99.90
24250;DHT22;12379;49.820;8.648;2023-02-18T03:20:26;11.10;99.90
24250;DHT22;12379;49.820;8.648;2023-02-18T03:22:55;11.10;99.90
24250;DHT22;12379;49.820;8.648;2023-02-18T03:25:23;11.10;99.90
24250;DHT22;12379;49.820;8.648;2023-02-18T03:27:54;11.10;99.90
24250;DHT22;12379;49.820;8.648;2023-02-18T03:30:53;11.10;99.90
24250;DHT22;12379;49.820;8.648;2023-02-18T03:33:29;11.10;99.90
24250;DHT22;12379;49.820;8.648;2023-02-18T03:36:20;11.20;99.90
24250;DHT22;12379;49.820;8.648;2023-02-18T03:38:51;11.20;99.90
24250;DHT22;12379;49.820;8.648;2023-02-18T03:41:34;11.20;99.90
24250;DHT22;12379;49.820;8.648;2023-02-18T03:44:23;11.30;99.90
24250;DHT22;12379;49.820;8.648;2023-02-18T03:49:43;11.20;99.90
24250;DHT22;12379;49.820;8.648;2023-02-18T03:52:12;11.30;99.90
24250;DHT22;12379;49.820;8.648;2023-02-18T03:54:37;11.30;99.90
24250;DHT22;12379;49.820;8.648;2023-02-18T03:57:03;11.40;99.90
24250;DHT22;12379;49.820;8.648;2023-02-18T03:59:28;11.30;99.90
24250;DHT22;12379;49.820;8.648;2023-02-18T04:01:54;11.40;99.90
24250;DHT22;12379;49.820;8.648;2023-02-18T04:04:19;11.40;99.90
24250;DHT22;12379;49.820;8.648;2023-02-18T04:06:45;11.40;99.90
24250;DHT22;12379;49.820;8.648;2023-02-18T04:09:11;11.40;99.90
24250;DHT22;12379;49.820;8.648;2023-02-18T04:11:39;11.40;99.90
24250;DHT22;12379;49.820;8.648;2023-02-18T04:14:06;11.40;99.90
24250;DHT22;12379;49.820;8.648;2023-02-18T04:16:32;11.30;99.90
24250;DHT22;12379;49.820;8.648;2023-02-18T04:18:57;11.40;99.90
24250;DHT22;12379;49.820;8.648;2023-02-18T04:21:24;11.40;99.90
24250;DHT22;12379;49.820;8.648;2023-02-18T04:23:49;11.40;99.90
24250;DHT22;12379;49.820;8.648;2023-02-18T04:26:15;11.30;99.90
24250;DHT22;12379;49.820;8.648;2023-02-18T04:28:40;11.40;99.90
24250;DHT22;12379;49.820;8.648;2023-02-18T04:31:06;11.30;99.90
24250;DHT22;12379;49.820;8.648;2023-02-18T04:33:32;11.30;99.90
24250;DHT22;12379;49.820;8.648;2023-02-18T04:35:57;11.40;99.90
24250;DHT22;12379;49.820;8.648;2023-02-18T04:38:23;11.30;99.90
24250;DHT22;12379;49.820;8.648;2023-02-18T04:40:49;11.30;99.90
24250;DHT22;12379;49.820;8.648;2023-02-18T04:43:14;11.30;99.90
24250;DHT22;12379;49.820;8.648;2023-02-18T04:46:01;11.30;99.90
24250;DHT22;12379;49.820;8.648;2023-02-18T04:49:03;11.30;99.90
24250;DHT22;12379;49.820;8.648;2023-02-18T04:51:29;11.30;99.90
24250;DHT22;12379;49.820;8.648;2023-02-18T04:53:58;11.40;99.90
24250;DHT22;12379;49.820;8.648;2023-02-18T04:56:27;11.30;99.90
24250;DHT22;12379;49.820;8.648;2023-02-18T04:58:55;11.30;99.90
24250;DHT22;12379;49.820;8.648;2023-02-18T05:01:21;11.40;99.90
24250;DHT22;12379;49.820;8.648;2023-02-18T05:03:48;11.30;99.90
24250;DHT22;12379;49.820;8.648;2023-02-18T05:06:13;11.40;99.90
24250;DHT22;12379;49.820;8.648;2023-02-18T05:08:39;11.30;99.90
24250;DHT22;12379;49.820;8.648;2023-02-18T05:11:06;11.30;99.90
24250;DHT22;12379;49.820;8.648;2023-02-18T05:13:32;11.30;99.90
24250;DHT22;12379;49.820;8.648;2023-02-18T05:15:58;11.30;99.90
24250;DHT22;12379;49.820;8.648;2023-02-18T05:18:26;11.30;99.90
24250;DHT22;12379;49.820;8.648;2023-02-18T05:20:52;11.30;99.90
24250;DHT22;12379;49.820;8.648;2023-02-18T05:23:17;11.30;99.90
24250;DHT22;12379;49.820;8.648;2023-02-18T05:25:47;11.30;99.90
24250;DHT22;12379;49.820;8.648;2023-02-18T05:28:13;11.30;99.90
24250;DHT22;12379;49.820;8.648;2023-02-18T05:30:39;11.30;99.90
24250;DHT22;12379;49.820;8.648;2023-02-18T05:33:04;11.20;99.90
24250;DHT22;12379;49.820;8.648;2023-02-18T05:35:30;11.20;99.90
24250;DHT22;12379;49.820;8.648;2023-02-18T05:37:56;11.20;99.90
24250;DHT22;12379;49.820;8.648;2023-02-18T05:40:21;11.20;99.90
24250;DHT22;12379;49.820;8.648;2023-02-18T05:42:47;11.20;99.90
24250;DHT22;12379;49.820;8.648;2023-02-18T05:45:12;11.20;99.90
24250;DHT22;12379;49.820;8.648;2023-02-18T05:47:38;11.30;99.90
24250;DHT22;12379;49.820;8.648;2023-02-18T05:50:07;11.30;99.90
24250;DHT22;12379;49.820;8.648;2023-02-18T05:52:32;11.20;99.90
24250;DHT22;12379;49.820;8.648;2023-02-18T05:54:58;11.20;99.90
24250;DHT22;12379;49.820;8.648;2023-02-18T05:57:24;11.20;99.90
24250;DHT22;12379;49.820;8.648;2023-02-18T05:59:50;11.30;99.90
24250;DHT22;12379;49.820;8.648;2023-02-18T06:02:16;11.30;99.90
24250;DHT22;12379;49.820;8.648;2023-02-18T06:04:41;11.30;99.90
24250;DHT22;12379;49.820;8.648;2023-02-18T06:07:07;11.30;99.90
24250;DHT22;12379;49.820;8.648;2023-02-18T06:09:34;11.30;99.90
24250;DHT22;12379;49.820;8.648;2023-02-18T06:11:59;11.30;99.90
24250;DHT22;12379;49.820;8.648;2023-02-18T06:14:25;11.30;99.90
24250;DHT22;12379;49.820;8.648;2023-02-18T06:16:51;11.30;99.90
24250;DHT22;12379;49.820;8.648;2023-02-18T06:19:16;11.30;99.90
24250;DHT22;12379;49.820;8.648;2023-02-18T06:21:45;11.30;99.90
24250;DHT22;12379;49.820;8.648;2023-02-18T06:24:11;11.30;99.90
24250;DHT22;12379;49.820;8.648;2023-02-18T06:26:36;11.30;99.90
24250;DHT22;12379;49.820;8.648;2023-02-18T06:29:02;11.40;99.90
24250;DHT22;12379;49.820;8.648;2023-02-18T06:31:28;11.40;99.90
24250;DHT22;12379;49.820;8.648;2023-02-18T06:33:53;11.40;99.90
24250;DHT22;12379;49.820;8.648;2023-02-18T06:36:19;11.40;99.90
24250;DHT22;12379;49.820;8.648;2023-02-18T06:38:45;11.40;99.90
24250;DHT22;12379;49.820;8.648;2023-02-18T06:41:12;11.40;99.90
24250;DHT22;12379;49.820;8.648;2023-02-18T06:43:38;11.40;99.90
24250;DHT22;12379;49.820;8.648;2023-02-18T06:46:04;11.40;99.90
24250;DHT22;12379;49.820;8.648;2023-02-18T06:48:29;11.40;99.90
24250;DHT22;12379;49.820;8.648;2023-02-18T06:50:55;11.40;99.90
24250;DHT22;12379;49.820;8.648;2023-02-18T06:53:21;11.40;99.90
24250;DHT22;12379;49.820;8.648;2023-02-18T06:55:47;11.30;99.90
24250;DHT22;12379;49.820;8.648;2023-02-18T06:58:13;11.40;99.90
24250;DHT22;12379;49.820;8.648;2023-02-18T07:00:42;11.30;99.90
24250;DHT22;12379;49.820;8.648;2023-02-18T07:03:07;11.30;99.90
24250;DHT22;12379;49.820;8.648;2023-02-18T07:05:33;11.30;99.90
24250;DHT22;12379;49.820;8.648;2023-02-18T07:07:59;11.30;99.90
24250;DHT22;12379;49.820;8.648;2023-02-18T07:10:25;11.30;99.90
24250;DHT22;12379;49.820;8.648;2023-02-18T07:12:50;11.30;99.90
24250;DHT22;12379;49.820;8.648;2023-02-18T07:15:16;11.30;99.90
24250;DHT22;12379;49.820;8.648;2023-02-18T07:17:42;11.30;99.90
24250;DHT22;12379;49.820;8.648;2023-02-18T07:20:08;11.30;99.90
24250;DHT22;12379;49.820;8.648;2023-02-18T07:22:33;11.30;99.90
24250;DHT22;12379;49.820;8.648;2023-02-18T07:24:59;11.40;99.90
24250;DHT22;12379;49.820;8.648;2023-02-18T07:27:24;11.30;99.90
24250;DHT22;12379;49.820;8.648;2023-02-18T07:29:50;11.30;99.90
24250;DHT22;12379;49.820;8.648;2023-02-18T07:32:17;11.40;99.90
24250;DHT22;12379;49.820;8.648;2023-02-18T07:34:43;11.30;99.90
24250;DHT22;12379;49.820;8.648;2023-02-18T07:37:09;11.30;99.90
24250;DHT22;12379;49.820;8.648;2023-02-18T07:39:39;11.30;99.90
24250;DHT22;12379;49.820;8.648;2023-02-18T07:42:05;11.30;99.90
24250;DHT22;12379;49.820;8.648;2023-02-18T07:44:41;11.40;99.90
24250;DHT22;12379;49.820;8.648;2023-02-18T07:47:17;11.40;99.90
24250;DHT22;12379;49.820;8.648;2023-02-18T07:49:47;11.40;99.90
24250;DHT22;12379;49.820;8.648;2023-02-18T07:52:18;11.40;99.90
24250;DHT22;12379;49.820;8.648;2023-02-18T07:54:44;11.40;99.90
24250;DHT22;12379;49.820;8.648;2023-02-18T07:57:13;11.40;99.90
24250;DHT22;12379;49.820;8.648;2023-02-18T07:59:38;11.40;99.90
24250;DHT22;12379;49.820;8.648;2023-02-18T08:02:04;11.40;99.90
24250;DHT22;12379;49.820;8.648;2023-02-18T08:04:35;11.30;99.90
24250;DHT22;12379;49.820;8.648;2023-02-18T08:07:01;11.30;99.90
24250;DHT22;12379;49.820;8.648;2023-02-18T08:09:26;11.40;99.90
24250;DHT22;12379;49.820;8.648;2023-02-18T08:11:52;11.40;99.90
24250;DHT22;12379;49.820;8.648;2023-02-18T08:14:25;11.40;99.90
24250;DHT22;12379;49.820;8.648;2023-02-18T08:17:15;11.40;99.90
24250;DHT22;12379;49.820;8.648;2023-02-18T08:19:52;11.40;99.90
24250;DHT22;12379;49.820;8.648;2023-02-18T08:22:29;11.40;99.90
24250;DHT22;12379;49.820;8.648;2023-02-18T08:24:55;11.50;99.90
24250;DHT22;12379;49.820;8.648;2023-02-18T08:28:00;11.50;99.90
24250;DHT22;12379;49.820;8.648;2023-02-18T08:30:58;11.50;99.90
24250;DHT22;12379;49.820;8.648;2023-02-18T08:33:24;11.50;99.90
24250;DHT22;12379;49.820;8.648;2023-02-18T08:36:21;11.50;99.90
24250;DHT22;12379;49.820;8.648;2023-02-18T08:41:44;11.60;99.90
24250;DHT22;12379;49.820;8.648;2023-02-18T08:44:42;11.70;99.90
24250;DHT22;12379;49.820;8.648;2023-02-18T08:47:13;11.70;99.90
24250;DHT22;12379;49.820;8.648;2023-02-18T08:49:58;11.70;99.90
24250;DHT22;12379;49.820;8.648;2023-02-18T08:52:53;11.60;99.90
24250;DHT22;12379;49.820;8.648;2023-02-18T08:55:21;11.70;99.90
24250;DHT22;12379;49.820;8.648;2023-02-18T08:57:49;11.70;99.90
24250;DHT22;12379;49.820;8.648;2023-02-18T09:00:15;11.70;99.90
24250;DHT22;12379;49.820;8.648;2023-02-18T09:02:41;11.70;99.90
24250;DHT22;12379;49.820;8.648;2023-02-18T09:05:07;11.60;99.90
24250;DHT22;12379;49.820;8.648;2023-02-18T09:07:35;11.70;99.90
24250;DHT22;12379;49.820;8.648;2023-02-18T09:10:00;11.60;99.90
24250;DHT22;12379;49.820;8.648;2023-02-18T09:12:27;11.60;99.90
24250;DHT22;12379;49.820;8.648;2023-02-18T09:14:53;11.60;99.90
24250;DHT22;12379;49.820;8.648;2023-02-18T09:17:18;11.60;99.90
24250;DHT22;12379;49.820;8.648;2023-02-18T09:19:44;11.60;99.90
24250;DHT22;12379;49.820;8.648;2023-02-18T09:22:09;11.60;99.90
24250;DHT22;12379;49.820;8.648;2023-02-18T09:24:37;11.60;99.90
24250;DHT22;12379;49.820;8.648;2023-02-18T09:30:18;11.70;99.90
24250;DHT22;12379;49.820;8.648;2023-02-18T09:32:46;11.70;99.90
24250;DHT22;12379;49.820;8.648;2023-02-18T09:35:15;11.80;99.90
24250;DHT22;12379;49.820;8.648;2023-02-18T09:37:44;11.80;99.90
24250;DHT22;12379;49.820;8.648;2023-02-18T09:40:28;11.80;99.90
24250;DHT22;12379;49.820;8.648;2023-02-18T09:42:58;11.80;99.90
24250;DHT22;12379;49.820;8.648;2023-02-18T09:45:24;11.90;99.90
24250;DHT22;12379;49.820;8.648;2023-02-18T09:47:50;11.90;99.90
24250;DHT22;12379;49.820;8.648;2023-02-18T09:50:21;11.90;99.90
24250;DHT22;12379;49.820;8.648;2023-02-18T09:52:49;11.90;99.90
24250;DHT22;12379;49.820;8.648;2023-02-18T09:58:11;11.90;99.90
24250;DHT22;12379;49.820;8.648;2023-02-18T10:00:41;11.90;99.90
24250;DHT22;12379;49.820;8.648;2023-02-18T10:03:14;11.90;99.90
24250;DHT22;12379;49.820;8.648;2023-02-18T10:06:02;12.00;99.90
24250;DHT22;12379;49.820;8.648;2023-02-18T10:08:45;12.00;99.90
24250;DHT22;12379;49.820;8.648;2023-02-18T10:11:23;12.00;99.90
24250;DHT22;12379;49.820;8.648;2023-02-18T10:13:56;12.00;99.90
24250;DHT22;12379;49.820;8.648;2023-02-18T10:16:23;12.00;99.90
24250;DHT22;12379;49.820;8.648;2023-02-18T10:18:53;12.00;99.90
24250;DHT22;12379;49.820;8.648;2023-02-18T10:21:24;12.00;99.90
24250;DHT22;12379;49.820;8.648;2023-02-18T10:26:37;12.00;99.90
24250;DHT22;12379;49.820;8.648;2023-02-18T10:29:12;12.00;99.90
24250;DHT22;12379;49.820;8.648;2023-02-18T10:31:43;12.00;99.90
24250;DHT22;12379;49.820;8.648;2023-02-18T10:36:46;12.10;99.90
24250;DHT22;12379;49.820;8.648;2023-02-18T10:42:26;12.10;99.90
24250;DHT22;12379;49.820;8.648;2023-02-18T10:44:59;12.10;99.90
24250;DHT22;12379;49.820;8.648;2023-02-18T10:47:53;12.10;99.90
24250;DHT22;12379;49.820;8.648;2023-02-18T10:50:39;12.10;99.90
24250;DHT22;12379;49.820;8.648;2023-02-18T10:53:30;12.20;99.90
24250;DHT22;12379;49.820;8.648;2023-02-18T10:55:56;12.20;99.90
24250;DHT22;12379;49.820;8.648;2023-02-18T10:58:28;12.20;99.90
24250;DHT22;12379;49.820;8.648;2023-02-18T11:00:54;12.30;99.90
24250;DHT22;12379;49.820;8.648;2023-02-18T11:03:22;12.30;99.90
24250;DHT22;12379;49.820;8.648;2023-02-18T11:05:54;12.30;99.90
24250;DHT22;12379;49.820;8.648;2023-02-18T11:08:27;12.20;99.90
24250;DHT22;12379;49.820;8.648;2023-02-18T11:10:54;12.20;99.90
24250;DHT22;12379;49.820;8.648;2023-02-18T11:13:26;12.20;99.90
24250;DHT22;12379;49.820;8.648;2023-02-18T11:18:41;12.20;99.90
24250;DHT22;12379;49.820;8.648;2023-02-18T11:23:50;12.10;99.90
24250;DHT22;12379;49.820;8.648;2023-02-18T11:26:29;12.10;99.90
24250;DHT22;12379;49.820;8.648;2023-02-18T11:29:23;12.00;99.90
24250;DHT22;12379;49.820;8.648;2023-02-18T11:31:55;12.00;99.90
24250;DHT22;12379;49.820;8.648;2023-02-18T11:34:29;12.00;99.90
24250;DHT22;12379;49.820;8.648;2023-02-18T11:37:38;12.10;99.90
24250;DHT22;12379;49.820;8.648;2023-02-18T11:39:54;12.10;99.90
24250;DHT22;12379;49.820;8.648;2023-02-18T11:42:22;12.10;99.90
24250;DHT22;12379;49.820;8.648;2023-02-18T11:44:57;12.20;99.90
24250;DHT22;12379;49.820;8.648;2023-02-18T11:47:31;12.20;99.90
24250;DHT22;12379;49.820;8.648;2023-02-18T11:52:34;12.20;99.90
24250;DHT22;12379;49.820;8.648;2023-02-18T11:57:26;12.30;99.90
24250;DHT22;12379;49.820;8.648;2023-02-18T11:59:52;12.30;99.90
24250;DHT22;12379;49.820;8.648;2023-02-18T12:04:49;12.20;99.90
24250;DHT22;12379;49.820;8.648;2023-02-18T12:07:38;12.30;99.90
24250;DHT22;12379;49.820;8.648;2023-02-18T12:10:33;12.30;99.90
24250;DHT22;12379;49.820;8.648;2023-02-18T12:22:17;12.30;99.90
24250;DHT22;12379;49.820;8.648;2023-02-18T12:25:04;12.40;99.90
24250;DHT22;12379;49.820;8.648;2023-02-18T12:38:57;12.50;99.90
24250;DHT22;12379;49.820;8.648;2023-02-18T13:01:35;12.40;99.90
24250;DHT22;12379;49.820;8.648;2023-02-18T13:04:14;12.50;99.90
24250;DHT22;12379;49.820;8.648;2023-02-18T13:06:50;12.50;99.90
24250;DHT22;12379;49.820;8.648;2023-02-18T13:12:14;12.50;99.90
24250;DHT22;12379;49.820;8.648;2023-02-18T13:14:53;12.50;99.90
24250;DHT22;12379;49.820;8.648;2023-02-18T13:17:24;12.60;99.90
24250;DHT22;12379;49.820;8.648;2023-02-18T13:20:08;12.60;99.90
24250;DHT22;12379;49.820;8.648;2023-02-18T13:22:38;12.60;99.90
24250;DHT22;12379;49.820;8.648;2023-02-18T13:25:10;12.60;99.90
24250;DHT22;12379;49.820;8.648;2023-02-18T13:28:05;12.60;99.90
24250;DHT22;12379;49.820;8.648;2023-02-18T13:30:39;12.60;99.90
24250;DHT22;12379;49.820;8.648;2023-02-18T13:33:31;12.60;99.90
24250;DHT22;12379;49.820;8.648;2023-02-18T13:38:52;12.60;99.90
24250;DHT22;12379;49.820;8.648;2023-02-18T13:41:20;12.60;99.90
24250;DHT22;12379;49.820;8.648;2023-02-18T13:43:46;12.60;99.90
24250;DHT22;12379;49.820;8.648;2023-02-18T13:46:17;12.60;99.90
24250;DHT22;12379;49.820;8.648;2023-02-18T13:48:51;12.60;99.90
24250;DHT22;12379;49.820;8.648;2023-02-18T13:51:39;12.60;99.90
24250;DHT22;12379;49.820;8.648;2023-02-18T13:57:02;12.50;99.90
24250;DHT22;12379;49.820;8.648;2023-02-18T13:59:35;12.50;99.90
24250;DHT22;12379;49.820;8.648;2023-02-18T14:12:42;12.50;99.90
24250;DHT22;12379;49.820;8.648;2023-02-18T14:22:57;12.40;99.90
24250;DHT22;12379;49.820;8.648;2023-02-18T14:25:39;12.40;99.90
24250;DHT22;12379;49.820;8.648;2023-02-18T14:36:37;12.30;99.90
24250;DHT22;12379;49.820;8.648;2023-02-18T14:42:19;12.30;99.90
24250;DHT22;12379;49.820;8.648;2023-02-18T14:45:30;12.30;99.90
24250;DHT22;12379;49.820;8.648;2023-02-18T14:50:45;12.30;99.90
24250;DHT22;12379;49.820;8.648;2023-02-18T14:53:42;12.20;99.90
24250;DHT22;12379;49.820;8.648;2023-02-18T14:56:11;12.20;99.90
24250;DHT22;12379;49.820;8.648;2023-02-18T14:58:41;12.20;99.90
24250;DHT22;12379;49.820;8.648;2023-02-18T15:01:28;12.10;99.90
24250;DHT22;12379;49.820;8.648;2023-02-18T15:04:01;12.10;99.90
24250;DHT22;12379;49.820;8.648;2023-02-18T15:08:54;12.00;99.90
24250;DHT22;12379;49.820;8.648;2023-02-18T15:11:37;12.10;99.90
24250;DHT22;12379;49.820;8.648;2023-02-18T15:14:10;12.00;99.90
24250;DHT22;12379;49.820;8.648;2023-02-18T15:16:38;12.00;99.90
24250;DHT22;12379;49.820;8.648;2023-02-18T15:19:10;12.00;99.90
24250;DHT22;12379;49.820;8.648;2023-02-18T15:21:39;12.00;99.90
24250;DHT22;12379;49.820;8.648;2023-02-18T15:24:08;12.10;99.90
24250;DHT22;12379;49.820;8.648;2023-02-18T15:26:42;12.00;99.90
24250;DHT22;12379;49.820;8.648;2023-02-18T15:29:17;12.10;99.90
24250;DHT22;12379;49.820;8.648;2023-02-18T15:31:46;12.10;99.90
24250;DHT22;12379;49.820;8.648;2023-02-18T15:34:29;12.00;99.90
24250;DHT22;12379;49.820;8.648;2023-02-18T15:36:57;12.00;99.90
24250;DHT22;12379;49.820;8.648;2023-02-18T15:39:23;12.00;99.90
24250;DHT22;12379;49.820;8.648;2023-02-18T15:41:55;12.00;99.90
24250;DHT22;12379;49.820;8.648;2023-02-18T15:44:23;12.00;99.90
24250;DHT22;12379;49.820;8.648;2023-02-18T15:46:50;12.00;99.90
24250;DHT22;12379;49.820;8.648;2023-02-18T15:49:20;12.00;99.90
24250;DHT22;12379;49.820;8.648;2023-02-18T15:51:46;12.00;99.90
24250;DHT22;12379;49.820;8.648;2023-02-18T15:54:16;12.00;99.90
24250;DHT22;12379;49.820;8.648;2023-02-18T15:56:44;12.00;99.90
24250;DHT22;12379;49.820;8.648;2023-02-18T15:59:27;11.90;99.90
24250;DHT22;12379;49.820;8.648;2023-02-18T16:04:38;11.90;99.90
24250;DHT22;12379;49.820;8.648;2023-02-18T16:07:48;11.90;99.90
24250;DHT22;12379;49.820;8.648;2023-02-18T16:10:22;11.90;99.90
24250;DHT22;12379;49.820;8.648;2023-02-18T16:12:53;11.90;99.90
24250;DHT22;12379;49.820;8.648;2023-02-18T16:15:31;11.90;99.90
24250;DHT22;12379;49.820;8.648;2023-02-18T16:18:01;11.90;99.90
24250;DHT22;12379;49.820;8.648;2023-02-18T16:20:32;11.90;99.90
24250;DHT22;12379;49.820;8.648;2023-02-18T16:23:02;11.80;99.90
24250;DHT22;12379;49.820;8.648;2023-02-18T16:25:42;11.80;99.90
24250;DHT22;12379;49.820;8.648;2023-02-18T16:30:37;11.70;99.90
24250;DHT22;12379;49.820;8.648;2023-02-18T16:33:06;11.70;99.90
24250;DHT22;12379;49.820;8.648;2023-02-18T16:35:32;11.70;99.90
24250;DHT22;12379;49.820;8.648;2023-02-18T16:37:58;11.60;99.90
24250;DHT22;12379;49.820;8.648;2023-02-18T16:40:35;11.60;99.90
24250;DHT22;12379;49.820;8.648;2023-02-18T16:43:13;11.60;99.90
24250;DHT22;12379;49.820;8.648;2023-02-18T16:45:47;11.60;99.90
24250;DHT22;12379;49.820;8.648;2023-02-18T16:48:30;11.60;99.90
24250;DHT22;12379;49.820;8.648;2023-02-18T16:50:59;11.60;99.90
24250;DHT22;12379;49.820;8.648;2023-02-18T16:53:25;11.60;99.90
24250;DHT22;12379;49.820;8.648;2023-02-18T16:55:51;11.50;99.90
24250;DHT22;12379;49.820;8.648;2023-02-18T16:58:17;11.50;99.90
24250;DHT22;12379;49.820;8.648;2023-02-18T17:00:43;11.50;99.90
24250;DHT22;12379;49.820;8.648;2023-02-18T17:03:11;11.50;99.90
24250;DHT22;12379;49.820;8.648;2023-02-18T17:05:37;11.50;99.90
24250;DHT22;12379;49.820;8.648;2023-02-18T17:08:21;11.40;99.90
24250;DHT22;12379;49.820;8.648;2023-02-18T17:10:52;11.40;99.90
24250;DHT22;12379;49.820;8.648;2023-02-18T17:13:26;11.40;99.90
24250;DHT22;12379;49.820;8.648;2023-02-18T17:15:54;11.40;99.90
24250;DHT22;12379;49.820;8.648;2023-02-18T17:18:21;11.40;99.90
24250;DHT22;12379;49.820;8.648;2023-02-18T17:20:49;11.40;99.90
24250;DHT22;12379;49.820;8.648;2023-02-18T17:23:17;11.30;99.90
24250;DHT22;12379;49.820;8.648;2023-02-18T17:25:43;11.30;99.90
24250;DHT22;12379;49.820;8.648;2023-02-18T17:28:09;11.30;99.90
24250;DHT22;12379;49.820;8.648;2023-02-18T17:30:38;11.30;99.90
24250;DHT22;12379;49.820;8.648;2023-02-18T17:33:05;11.30;99.90
24250;DHT22;12379;49.820;8.648;2023-02-18T17:35:31;11.30;99.90
24250;DHT22;12379;49.820;8.648;2023-02-18T17:37:57;11.30;99.90
24250;DHT22;12379;49.820;8.648;2023-02-18T17:40:25;11.30;99.90
24250;DHT22;12379;49.820;8.648;2023-02-18T17:42:53;11.30;99.90
24250;DHT22;12379;49.820;8.648;2023-02-18T17:45:37;11.30;99.90
24250;DHT22;12379;49.820;8.648;2023-02-18T17:48:04;11.20;99.90
24250;DHT22;12379;49.820;8.648;2023-02-18T17:50:30;11.20;99.90
24250;DHT22;12379;49.820;8.648;2023-02-18T17:52:56;11.20;99.90
24250;DHT22;12379;49.820;8.648;2023-02-18T17:55:28;11.10;99.90
24250;DHT22;12379;49.820;8.648;2023-02-18T17:57:54;11.10;99.90
24250;DHT22;12379;49.820;8.648;2023-02-18T18:00:23;11.00;99.90
24250;DHT22;12379;49.820;8.648;2023-02-18T18:02:49;11.00;99.90
24250;DHT22;12379;49.820;8.648;2023-02-18T18:05:22;11.00;99.90
24250;DHT22;12379;49.820;8.648;2023-02-18T18:07:48;11.00;99.90
24250;DHT22;12379;49.820;8.648;2023-02-18T18:10:15;11.00;99.90
24250;DHT22;12379;49.820;8.648;2023-02-18T18:12:41;11.00;99.90
24250;DHT22;12379;49.820;8.648;2023-02-18T18:17:56;11.00;99.90
24250;DHT22;12379;49.820;8.648;2023-02-18T18:20:24;11.00;99.90
24250;DHT22;12379;49.820;8.648;2023-02-18T18:22:52;10.90;99.90
24250;DHT22;12379;49.820;8.648;2023-02-18T18:25:38;10.90;99.90
24250;DHT22;12379;49.820;8.648;2023-02-18T18:28:05;10.90;99.90
24250;DHT22;12379;49.820;8.648;2023-02-18T18:30:32;10.90;99.90
24250;DHT22;12379;49.820;8.648;2023-02-18T18:33:00;11.00;99.90
24250;DHT22;12379;49.820;8.648;2023-02-18T18:35:35;10.90;99.90
24250;DHT22;12379;49.820;8.648;2023-02-18T18:38:01;10.90;99.90